createdAt,value
2023-08-13T00:00:10.732Z,20.66
2023-08-13T00:02:37.132Z,20.82
2023-08-13T00:05:03.456Z,19.86
2023-08-13T00:07:29.751Z,20.14
2023-08-13T00:09:56.064Z,19.58
2023-08-13T00:12:22.458Z,19.61
2023-08-13T00:14:48.766Z,19.94
2023-08-13T00:17:15.338Z,20.21
2023-08-13T00:19:41.868Z,20.54
2023-08-13T00:22:08.440Z,20.79
2023-08-13T00:24:34.781Z,20.36
2023-08-13T00:27:01.084Z,20.25
2023-08-13T00:29:27.389Z,20.46
2023-08-13T00:31:53.701Z,20.44
2023-08-13T00:34:20.035Z,20.14
2023-08-13T00:36:46.364Z,20.13
2023-08-13T00:39:12.653Z,20.41
2023-08-13T00:41:38.972Z,20.45
2023-08-13T00:44:05.265Z,20.18
2023-08-13T00:46:31.566Z,20.12
2023-08-13T00:48:57.861Z,19.64
2023-08-13T00:51:24.156Z,19.18
2023-08-13T00:53:50.480Z,19.46
2023-08-13T00:56:16.960Z,19.78
2023-08-13T00:58:43.265Z,19.47
2023-08-13T01:01:09.602Z,19.69
2023-08-13T01:03:35.949Z,19.93
2023-08-13T01:06:02.278Z,20.30
2023-08-13T01:08:28.608Z,19.53
2023-08-13T01:10:54.919Z,19.13
2023-08-13T01:13:21.223Z,18.81
2023-08-13T01:15:47.612Z,19.14
2023-08-13T01:18:13.970Z,19.02
2023-08-13T01:20:40.360Z,18.63
2023-08-13T01:23:06.710Z,18.66
2023-08-13T01:25:33.042Z,18.77
2023-08-13T01:27:59.374Z,19.09
2023-08-13T01:30:28.524Z,19.39
2023-08-13T01:32:54.885Z,19.54
2023-08-13T01:35:21.228Z,19.99
2023-08-13T01:37:47.519Z,20.32
2023-08-13T01:40:13.829Z,20.40
2023-08-13T01:42:40.164Z,20.36
2023-08-13T01:45:06.488Z,20.32
2023-08-13T01:47:32.838Z,19.98
2023-08-13T01:49:59.138Z,19.29
2023-08-13T01:52:25.455Z,19.17
2023-08-13T01:54:51.777Z,18.74
2023-08-13T01:57:18.094Z,18.61
2023-08-13T01:59:44.418Z,18.65
2023-08-13T02:02:10.749Z,18.65
2023-08-13T02:04:37.068Z,18.45
2023-08-13T02:07:03.414Z,18.38
2023-08-13T02:09:29.873Z,18.50
2023-08-13T02:11:56.188Z,18.41
2023-08-13T02:14:22.483Z,18.83
2023-08-13T02:16:48.808Z,19.30
2023-08-13T02:19:15.151Z,19.71
2023-08-13T02:21:41.432Z,19.85
2023-08-13T02:24:07.726Z,20.04
2023-08-13T02:26:34.065Z,20.15
2023-08-13T02:29:00.350Z,20.22
2023-08-13T02:31:26.672Z,19.38
2023-08-13T02:33:52.992Z,19.02
2023-08-13T02:36:19.289Z,18.60
2023-08-13T02:38:45.585Z,18.76
2023-08-13T02:41:11.877Z,18.48
2023-08-13T02:43:38.170Z,18.57
2023-08-13T02:46:04.524Z,18.68
2023-08-13T02:48:30.931Z,19.36
2023-08-13T02:50:57.251Z,19.81
2023-08-13T02:53:23.551Z,20.13
2023-08-13T02:55:49.843Z,20.26
2023-08-13T02:58:16.153Z,20.32
2023-08-13T03:00:44.237Z,20.36
2023-08-13T03:03:10.683Z,20.53
2023-08-13T03:05:37.055Z,20.42
2023-08-13T03:08:03.452Z,20.43
2023-08-13T03:10:29.760Z,20.59
2023-08-13T03:12:56.064Z,20.67
2023-08-13T03:15:22.366Z,20.42
2023-08-13T03:17:48.697Z,20.31
2023-08-13T03:20:15.072Z,20.25
2023-08-13T03:22:41.388Z,20.41
2023-08-13T03:25:07.679Z,20.44
2023-08-13T03:27:33.989Z,20.17
2023-08-13T03:30:00.301Z,20.26
2023-08-13T03:32:26.689Z,20.11
2023-08-13T03:34:52.988Z,20.31
2023-08-13T03:37:19.310Z,20.04
2023-08-13T03:39:45.603Z,19.35
2023-08-13T03:42:12.236Z,18.78
2023-08-13T03:44:38.720Z,18.22
2023-08-13T03:47:05.031Z,18.12
2023-08-13T03:49:31.322Z,18.28
2023-08-13T03:51:57.625Z,18.35
2023-08-13T03:54:23.940Z,18.45
2023-08-13T03:56:50.254Z,18.27
2023-08-13T03:59:16.586Z,18.26
2023-08-13T04:01:43.060Z,18.19
2023-08-13T04:04:09.536Z,18.20
2023-08-13T04:06:35.900Z,18.89
2023-08-13T04:09:02.198Z,19.28
2023-08-13T04:11:28.497Z,19.27
2023-08-13T04:14:14.752Z,18.82
2023-08-13T04:16:41.059Z,18.62
2023-08-13T04:19:07.352Z,18.91
2023-08-13T04:21:33.655Z,18.57
2023-08-13T04:23:59.942Z,18.50
2023-08-13T04:26:26.236Z,18.86
2023-08-13T04:28:52.530Z,18.40
2023-08-13T04:31:18.890Z,18.62
2023-08-13T04:33:45.192Z,18.73
2023-08-13T04:36:11.492Z,18.56
2023-08-13T04:38:37.776Z,18.96
2023-08-13T04:41:06.225Z,19.28
2023-08-13T04:43:32.536Z,19.72
2023-08-13T04:45:58.837Z,19.86
2023-08-13T04:48:25.125Z,19.71
2023-08-13T04:50:51.413Z,19.92
2023-08-13T04:53:17.713Z,20.01
2023-08-13T04:55:44.016Z,19.92
2023-08-13T04:58:10.302Z,19.79
2023-08-13T05:00:36.597Z,19.61
2023-08-13T05:03:02.957Z,19.05
2023-08-13T05:05:29.307Z,18.89
2023-08-13T05:07:55.649Z,19.02
2023-08-13T05:10:21.987Z,19.39
2023-08-13T05:12:48.286Z,19.68
2023-08-13T05:15:14.569Z,20.06
2023-08-13T05:17:40.925Z,20.14
2023-08-13T05:20:07.256Z,20.22
2023-08-13T05:22:33.541Z,20.49
2023-08-13T05:24:59.826Z,20.68
2023-08-13T05:27:26.097Z,20.24
2023-08-13T05:29:52.399Z,20.03
2023-08-13T05:32:18.712Z,20.48
2023-08-13T05:34:45.000Z,20.57
2023-08-13T05:37:11.302Z,20.78
2023-08-13T05:39:37.598Z,21.06
2023-08-13T05:42:03.916Z,21.40
2023-08-13T05:44:30.228Z,21.67
2023-08-13T05:46:56.530Z,22.20
2023-08-13T05:49:22.812Z,22.50
2023-08-13T05:51:49.196Z,22.35
2023-08-13T05:54:15.537Z,22.56
2023-08-13T05:56:41.899Z,22.69
2023-08-13T05:59:09.385Z,22.74
2023-08-13T06:01:35.671Z,22.61
2023-08-13T06:04:01.971Z,22.48
2023-08-13T06:06:28.303Z,22.42
2023-08-13T06:08:54.615Z,21.90
2023-08-13T06:11:20.901Z,22.17
2023-08-13T06:13:47.272Z,22.25
2023-08-13T06:16:13.760Z,22.76
2023-08-13T06:18:40.189Z,23.02
2023-08-13T06:21:06.500Z,23.14
2023-08-13T06:23:32.787Z,22.82
2023-08-13T06:25:59.071Z,23.28
2023-08-13T06:28:25.374Z,22.92
2023-08-13T06:30:51.708Z,23.31
2023-08-13T06:33:18.044Z,23.00
2023-08-13T06:35:44.337Z,23.13
2023-08-13T06:38:10.624Z,23.22
2023-08-13T06:40:36.933Z,23.25
2023-08-13T06:43:03.228Z,23.14
2023-08-13T06:45:29.532Z,23.08
2023-08-13T06:47:55.865Z,23.33
2023-08-13T06:50:22.161Z,23.30
2023-08-13T06:52:48.477Z,23.19
2023-08-13T06:55:14.770Z,23.44
2023-08-13T06:57:41.067Z,23.43
2023-08-13T07:00:07.345Z,23.83
2023-08-13T07:02:33.703Z,23.27
2023-08-13T07:05:00.076Z,23.53
2023-08-13T07:07:26.477Z,23.46
2023-08-13T07:09:52.764Z,23.96
2023-08-13T07:12:19.043Z,24.05
2023-08-13T07:14:45.337Z,23.50
2023-08-13T07:17:11.751Z,23.31
2023-08-13T07:19:38.081Z,23.84
2023-08-13T07:22:04.380Z,23.85
2023-08-13T07:24:30.684Z,23.91
2023-08-13T07:26:57.004Z,23.94
2023-08-13T07:29:23.290Z,24.03
2023-08-13T07:31:49.674Z,23.92
2023-08-13T07:34:16.199Z,23.85
2023-08-13T07:36:42.577Z,23.81
2023-08-13T07:39:08.914Z,23.49
2023-08-13T07:41:35.244Z,23.76
2023-08-13T07:44:01.603Z,24.18
2023-08-13T07:46:27.923Z,24.41
2023-08-13T07:48:54.251Z,24.49
2023-08-13T07:51:20.718Z,24.47
2023-08-13T07:53:47.128Z,23.97
2023-08-13T07:56:13.478Z,24.13
2023-08-13T07:58:39.783Z,24.32
2023-08-13T08:01:06.128Z,24.20
2023-08-13T08:03:32.471Z,23.97
2023-08-13T08:05:58.777Z,24.07
2023-08-13T08:08:25.075Z,24.09
2023-08-13T08:10:51.369Z,24.00
2023-08-13T08:13:17.677Z,23.73
2023-08-13T08:15:44.051Z,24.27
2023-08-13T08:18:10.536Z,24.28
2023-08-13T08:20:36.952Z,24.36
2023-08-13T08:23:03.284Z,24.56
2023-08-13T08:25:29.577Z,24.78
2023-08-13T08:27:55.867Z,24.37
2023-08-13T08:30:22.165Z,24.53
2023-08-13T08:32:48.519Z,24.49
2023-08-13T08:35:14.891Z,25.08
2023-08-13T08:37:41.181Z,24.89
2023-08-13T08:40:07.505Z,24.54
2023-08-13T08:42:33.825Z,24.58
2023-08-13T08:45:00.269Z,24.95
2023-08-13T08:47:26.597Z,25.18
2023-08-13T08:49:52.971Z,24.74
2023-08-13T08:52:19.314Z,24.75
2023-08-13T08:54:45.604Z,24.46
2023-08-13T08:57:11.948Z,24.58
2023-08-13T08:59:38.253Z,24.98
2023-08-13T09:02:04.610Z,24.99
2023-08-13T09:04:30.952Z,25.06
2023-08-13T09:06:57.243Z,24.94
2023-08-13T09:09:23.552Z,24.90
2023-08-13T09:11:49.867Z,25.06
2023-08-13T09:14:16.180Z,25.52
2023-08-13T09:16:42.527Z,25.33
2023-08-13T09:19:14.097Z,25.33
2023-08-13T09:21:40.833Z,25.45
2023-08-13T09:24:07.140Z,25.17
2023-08-13T09:26:33.436Z,25.39
2023-08-13T09:28:59.762Z,25.51
2023-08-13T09:31:26.072Z,26.00
2023-08-13T09:33:52.365Z,25.61
2023-08-13T09:36:18.717Z,26.24
2023-08-13T09:38:45.012Z,26.20
2023-08-13T09:41:11.461Z,26.27
2023-08-13T09:43:37.783Z,26.71
2023-08-13T09:46:04.082Z,26.43
2023-08-13T09:48:30.465Z,26.58
2023-08-13T09:50:56.770Z,26.81
2023-08-13T09:53:23.078Z,26.49
2023-08-13T09:55:49.356Z,26.50
2023-08-13T09:58:15.656Z,26.50
2023-08-13T10:00:42.014Z,26.50
2023-08-13T10:03:10.638Z,26.56
2023-08-13T10:05:38.170Z,26.87
2023-08-13T10:08:04.471Z,26.90
2023-08-13T10:10:30.773Z,26.88
2023-08-13T10:12:57.094Z,26.83
2023-08-13T10:15:23.517Z,26.39
2023-08-13T10:17:49.916Z,26.68
2023-08-13T10:20:16.267Z,26.79
2023-08-13T10:22:42.596Z,26.64
2023-08-13T10:25:08.930Z,26.80
2023-08-13T10:27:35.357Z,27.06
2023-08-13T10:30:01.686Z,26.85
2023-08-13T10:32:28.007Z,26.85
2023-08-13T10:34:54.319Z,26.65
2023-08-13T10:37:20.729Z,27.01
2023-08-13T10:39:47.080Z,26.91
2023-08-13T10:42:13.820Z,27.07
2023-08-13T10:44:40.365Z,27.24
2023-08-13T10:47:06.865Z,26.76
2023-08-13T10:49:33.165Z,26.83
2023-08-13T10:51:59.534Z,27.20
2023-08-13T10:54:25.829Z,27.35
2023-08-13T10:56:52.138Z,27.71
2023-08-13T10:59:18.423Z,27.84
2023-08-13T11:01:44.733Z,27.45
2023-08-13T11:04:11.034Z,27.63
2023-08-13T11:06:37.327Z,27.71
2023-08-13T11:09:03.658Z,27.43
2023-08-13T11:11:29.973Z,27.46
2023-08-13T11:13:56.293Z,27.35
2023-08-13T11:16:22.720Z,27.40
2023-08-13T11:18:49.123Z,26.97
2023-08-13T11:21:15.424Z,27.33
2023-08-13T11:23:41.723Z,27.21
2023-08-13T11:26:08.032Z,27.26
2023-08-13T11:28:34.386Z,27.56
2023-08-13T11:31:00.682Z,27.20
2023-08-13T11:33:27.062Z,27.43
2023-08-13T11:35:53.464Z,27.55
2023-08-13T11:38:20.135Z,27.70
2023-08-13T11:40:46.636Z,27.16
2023-08-13T11:43:12.939Z,27.32
2023-08-13T11:45:39.253Z,27.28
2023-08-13T11:48:05.649Z,27.59
2023-08-13T11:50:32.032Z,27.76
2023-08-13T11:52:58.370Z,27.67
2023-08-13T11:55:24.667Z,27.37
2023-08-13T11:57:50.970Z,27.40
2023-08-13T12:00:17.273Z,27.77
2023-08-13T12:02:43.614Z,27.68
2023-08-13T12:05:09.928Z,27.59
2023-08-13T12:07:36.230Z,27.77
2023-08-13T12:10:02.527Z,27.93
2023-08-13T12:12:29.036Z,27.67
2023-08-13T12:14:55.332Z,27.62
2023-08-13T12:17:21.655Z,27.60
2023-08-13T12:19:47.966Z,28.14
2023-08-13T12:22:14.426Z,27.78
2023-08-13T12:24:40.947Z,27.70
2023-08-13T12:27:07.238Z,27.93
2023-08-13T12:29:33.544Z,28.14
2023-08-13T12:32:01.022Z,28.17
2023-08-13T12:34:29.102Z,28.23
2023-08-13T12:36:55.407Z,28.27
2023-08-13T12:39:21.711Z,28.47
2023-08-13T12:41:48.034Z,28.26
2023-08-13T12:44:14.338Z,28.42
2023-08-13T12:46:40.760Z,28.46
2023-08-13T12:49:07.092Z,28.18
2023-08-13T12:51:33.402Z,28.57
2023-08-13T12:53:59.724Z,29.10
2023-08-13T12:56:26.043Z,28.96
2023-08-13T12:58:52.394Z,28.77
2023-08-13T13:01:18.750Z,28.65
2023-08-13T13:03:45.140Z,28.96
2023-08-13T13:06:11.431Z,28.79
2023-08-13T13:08:37.723Z,28.66
2023-08-13T13:11:04.008Z,28.47
2023-08-13T13:13:30.295Z,28.47
2023-08-13T13:15:56.604Z,28.20
2023-08-13T13:18:22.917Z,27.49
2023-08-13T13:20:49.212Z,27.37
2023-08-13T13:23:15.498Z,27.48
2023-08-13T13:25:41.784Z,27.33
2023-08-13T13:28:08.079Z,27.23
2023-08-13T13:30:34.413Z,27.08
2023-08-13T13:33:00.801Z,27.05
2023-08-13T13:35:27.110Z,27.22
2023-08-13T13:37:53.402Z,27.41
2023-08-13T13:40:19.740Z,27.39
2023-08-13T13:42:46.051Z,27.41
2023-08-13T13:45:12.449Z,27.94
2023-08-13T13:47:38.819Z,28.23
2023-08-13T13:50:05.147Z,28.55
2023-08-13T13:52:31.467Z,28.23
2023-08-13T13:54:57.773Z,28.49
2023-08-13T13:57:24.070Z,28.35
2023-08-13T13:59:50.357Z,28.43
2023-08-13T14:02:16.722Z,28.37
2023-08-13T14:04:43.331Z,28.51
2023-08-13T14:07:09.747Z,28.76
2023-08-13T14:09:36.054Z,28.75
2023-08-13T14:12:02.336Z,28.86
2023-08-13T14:14:28.634Z,28.55
2023-08-13T14:16:54.928Z,28.75
2023-08-13T14:19:21.218Z,29.04
2023-08-13T14:21:47.527Z,28.86
2023-08-13T14:24:13.829Z,28.54
2023-08-13T14:26:40.119Z,29.00
2023-08-13T14:29:06.486Z,28.67
2023-08-13T14:31:32.884Z,28.48
2023-08-13T14:33:59.236Z,28.84
2023-08-13T14:36:25.840Z,29.57
2023-08-13T14:38:52.243Z,29.02
2023-08-13T14:41:18.540Z,28.88
2023-08-13T14:43:44.830Z,28.86
2023-08-13T14:46:11.205Z,29.03
2023-08-13T14:48:37.596Z,28.83
2023-08-13T14:51:03.891Z,28.93
2023-08-13T14:53:30.229Z,29.23
2023-08-13T14:55:56.522Z,28.36
2023-08-13T14:58:22.828Z,28.36
2023-08-13T15:00:49.230Z,28.74
2023-08-13T15:03:15.620Z,28.66
2023-08-13T15:05:42.001Z,28.98
2023-08-13T15:08:08.429Z,28.73
2023-08-13T15:10:34.734Z,28.80
2023-08-13T15:13:01.032Z,29.00
2023-08-13T15:15:27.387Z,28.82
2023-08-13T15:17:53.741Z,28.74
2023-08-13T15:20:20.086Z,29.09
2023-08-13T15:22:46.391Z,28.78
2023-08-13T15:25:12.679Z,29.14
2023-08-13T15:27:38.987Z,28.93
2023-08-13T15:30:05.351Z,29.00
2023-08-13T15:32:31.748Z,28.88
2023-08-13T15:34:58.062Z,28.84
2023-08-13T15:37:24.403Z,28.82
2023-08-13T15:39:50.731Z,28.99
2023-08-13T15:42:17.278Z,28.69
2023-08-13T15:44:43.725Z,28.00
2023-08-13T15:47:10.040Z,28.67
2023-08-13T15:49:36.330Z,28.85
2023-08-13T15:52:02.680Z,29.01
2023-08-13T15:54:29.015Z,28.90
2023-08-13T15:56:55.318Z,29.22
2023-08-13T15:59:21.606Z,28.78
2023-08-13T16:01:48.095Z,28.65
2023-08-13T16:04:15.758Z,28.40
2023-08-13T16:06:42.202Z,28.73
2023-08-13T16:09:08.520Z,28.71
2023-08-13T16:11:34.935Z,28.62
2023-08-13T16:14:01.240Z,28.81
2023-08-13T16:16:27.611Z,28.64
2023-08-13T16:18:53.986Z,28.64
2023-08-13T16:21:20.274Z,28.77
2023-08-13T16:23:46.759Z,28.62
2023-08-13T16:26:13.942Z,28.56
2023-08-13T16:28:40.226Z,28.66
2023-08-13T16:31:06.586Z,28.55
2023-08-13T16:33:32.922Z,28.17
2023-08-13T16:35:59.261Z,27.64
2023-08-13T16:38:25.559Z,27.84
2023-08-13T16:40:51.878Z,28.00
2023-08-13T16:43:18.204Z,27.98
2023-08-13T16:45:44.552Z,27.84
2023-08-13T16:48:12.860Z,27.66
2023-08-13T16:50:40.979Z,27.39
2023-08-13T16:53:07.297Z,27.00
2023-08-13T16:55:33.598Z,26.77
2023-08-13T16:57:59.925Z,26.54
2023-08-13T17:00:26.324Z,26.42
2023-08-13T17:02:52.711Z,26.32
2023-08-13T17:05:19.038Z,26.39
2023-08-13T17:07:45.372Z,26.05
2023-08-13T17:10:11.662Z,26.32
2023-08-13T17:12:37.979Z,26.07
2023-08-13T17:15:16.869Z,25.93
2023-08-13T17:17:49.974Z,26.25
2023-08-13T17:20:17.429Z,26.29
2023-08-13T17:22:45.538Z,26.41
2023-08-13T17:25:11.844Z,26.07
2023-08-13T17:27:38.144Z,26.20
2023-08-13T17:30:04.459Z,25.81
2023-08-13T17:32:30.756Z,26.25
2023-08-13T17:34:57.069Z,25.98
2023-08-13T17:37:23.433Z,25.39
2023-08-13T17:39:49.741Z,25.15
2023-08-13T17:42:16.029Z,25.46
2023-08-13T17:44:42.337Z,25.25
2023-08-13T17:47:08.617Z,24.96
2023-08-13T17:49:34.925Z,24.81
2023-08-13T17:52:01.288Z,24.70
2023-08-13T17:54:27.579Z,24.55
2023-08-13T17:56:53.903Z,24.64
2023-08-13T17:59:20.193Z,25.04
2023-08-13T18:01:46.503Z,24.92
2023-08-13T18:04:12.791Z,25.03
2023-08-13T18:06:39.074Z,24.93
2023-08-13T18:09:06.193Z,24.95
2023-08-13T18:11:32.637Z,25.51
2023-08-13T18:13:58.925Z,25.69
2023-08-13T18:16:25.261Z,25.47
2023-08-13T18:18:51.668Z,25.42
2023-08-13T18:21:17.962Z,25.04
2023-08-13T18:23:44.293Z,24.98
2023-08-13T18:26:10.602Z,24.53
2023-08-13T18:28:36.905Z,24.85
2023-08-13T18:31:03.278Z,24.78
2023-08-13T18:33:29.694Z,24.60
2023-08-13T18:35:55.982Z,24.92
2023-08-13T18:38:22.379Z,24.40
2023-08-13T18:40:48.692Z,24.45
2023-08-13T18:43:15.079Z,24.27
2023-08-13T18:45:41.386Z,24.10
2023-08-13T18:48:07.729Z,24.26
2023-08-13T18:50:34.086Z,24.23
2023-08-13T18:53:00.386Z,24.60
2023-08-13T18:55:26.707Z,24.09
2023-08-13T18:57:53.074Z,24.56
2023-08-13T19:00:19.392Z,24.54
2023-08-13T19:02:45.808Z,24.47
2023-08-13T19:05:12.205Z,24.78
2023-08-13T19:07:38.549Z,24.43
2023-08-13T19:10:04.867Z,24.40
2023-08-13T19:12:31.214Z,24.37
2023-08-13T19:14:57.557Z,24.70
2023-08-13T19:17:23.961Z,24.18
2023-08-13T19:19:50.365Z,24.40
2023-08-13T19:22:16.892Z,24.20
2023-08-13T19:24:43.399Z,23.74
2023-08-13T19:27:09.746Z,23.84
2023-08-13T19:29:36.092Z,24.46
2023-08-13T19:32:02.559Z,24.33
2023-08-13T19:34:31.147Z,24.42
2023-08-13T19:36:57.529Z,24.83
2023-08-13T19:39:23.875Z,24.65
2023-08-13T19:41:50.251Z,24.79
2023-08-13T19:44:31.705Z,25.05
2023-08-13T19:47:03.107Z,25.06
2023-08-13T19:49:38.387Z,24.97
2023-08-13T19:52:20.119Z,25.04
2023-08-13T19:54:46.519Z,25.06
2023-08-13T19:57:12.874Z,24.86
2023-08-13T19:59:39.292Z,24.32
2023-08-13T20:02:05.634Z,24.14
2023-08-13T20:04:31.999Z,24.00
2023-08-13T20:06:58.417Z,24.09
2023-08-13T20:09:24.799Z,23.91
2023-08-13T20:11:51.174Z,23.80
2023-08-13T20:14:18.820Z,23.59
2023-08-13T20:16:45.191Z,23.11
2023-08-13T20:19:11.563Z,22.81
2023-08-13T20:21:37.913Z,22.89
2023-08-13T20:24:06.664Z,22.88
2023-08-13T20:26:32.980Z,22.92
2023-08-13T20:28:59.312Z,23.13
2023-08-13T20:31:25.720Z,23.59
2023-08-13T20:33:52.161Z,23.62
2023-08-13T20:36:18.576Z,23.55
2023-08-13T20:38:44.895Z,23.59
2023-08-13T20:41:11.230Z,23.62
2023-08-13T20:43:37.557Z,23.61
2023-08-13T20:46:03.921Z,23.47
2023-08-13T20:48:30.281Z,23.06
2023-08-13T20:50:56.574Z,22.86
2023-08-13T20:53:22.861Z,23.01
2023-08-13T20:55:49.154Z,22.85
2023-08-13T20:58:15.458Z,23.30
2023-08-13T21:00:41.829Z,23.31
2023-08-13T21:03:08.223Z,23.26
2023-08-13T21:05:34.586Z,22.85
2023-08-13T21:08:00.880Z,23.01
2023-08-13T21:10:27.197Z,23.38
2023-08-13T21:12:53.536Z,23.61
2023-08-13T21:15:19.879Z,23.85
2023-08-13T21:17:46.228Z,23.81
2023-08-13T21:20:12.555Z,23.84
2023-08-13T21:22:38.866Z,23.44
2023-08-13T21:25:05.252Z,23.35
2023-08-13T21:27:31.546Z,23.48
2023-08-13T21:29:57.844Z,23.42
2023-08-13T21:32:24.163Z,23.61
2023-08-13T21:34:50.453Z,23.56
2023-08-13T21:37:16.745Z,23.50
2023-08-13T21:39:43.042Z,23.78
2023-08-13T21:42:09.357Z,23.39
2023-08-13T21:44:35.683Z,23.69
2023-08-13T21:47:01.980Z,23.42
2023-08-13T21:49:28.278Z,23.03
2023-08-13T21:51:54.559Z,22.58
2023-08-13T21:54:20.864Z,22.51
2023-08-13T21:56:47.165Z,22.74
2023-08-13T21:59:13.448Z,22.74
2023-08-13T22:01:39.802Z,22.65
2023-08-13T22:04:06.116Z,22.88
2023-08-13T22:06:32.465Z,23.18
2023-08-13T22:08:58.748Z,23.39
2023-08-13T22:11:25.064Z,23.11
2023-08-13T22:13:51.348Z,22.55
2023-08-13T22:16:17.707Z,22.30
2023-08-13T22:18:44.076Z,22.01
2023-08-13T22:21:10.395Z,21.74
2023-08-13T22:23:36.677Z,21.93
2023-08-13T22:26:16.250Z,21.62
2023-08-13T22:28:44.106Z,21.68
2023-08-13T22:31:10.454Z,22.10
2023-08-13T22:33:36.734Z,22.15
2023-08-13T22:36:03.082Z,22.23
2023-08-13T22:38:29.421Z,22.09
2023-08-13T22:40:55.855Z,22.15
2023-08-13T22:43:22.173Z,22.53
2023-08-13T22:45:48.531Z,22.65
2023-08-13T22:48:15.030Z,22.66
2023-08-13T22:50:41.330Z,22.45
2023-08-13T22:53:07.621Z,22.50
2023-08-13T22:55:33.902Z,22.55
2023-08-13T22:58:00.246Z,22.95
2023-08-13T23:00:26.545Z,22.34
2023-08-13T23:02:52.872Z,22.93
2023-08-13T23:05:19.210Z,22.46
2023-08-13T23:07:45.564Z,23.13
2023-08-13T23:10:11.869Z,23.30
2023-08-13T23:12:38.170Z,23.50
2023-08-13T23:15:04.462Z,23.46
2023-08-13T23:17:30.831Z,23.44
2023-08-13T23:19:57.155Z,22.55
2023-08-13T23:22:23.491Z,22.31
2023-08-13T23:24:49.809Z,22.73
2023-08-13T23:27:16.103Z,22.55
2023-08-13T23:29:42.395Z,22.17
2023-08-13T23:32:08.752Z,22.60
2023-08-13T23:34:35.111Z,22.93
2023-08-13T23:37:01.465Z,22.67
2023-08-13T23:39:27.747Z,22.96
2023-08-13T23:41:54.063Z,22.10
2023-08-13T23:44:20.427Z,21.98
2023-08-13T23:46:46.735Z,22.33
2023-08-13T23:49:13.064Z,21.72
2023-08-13T23:51:39.408Z,21.63
2023-08-13T23:54:05.708Z,21.38
2023-08-13T23:56:32.043Z,21.33
2023-08-13T23:58:58.405Z,21.27
